sensor_id;sensor_type;location;lat;lon;timestamp;P1;durP1;ratioP1;P2;durP2;ratioP2
65045;SDS011;54657;52.022;5.534;2023-11-18T00:02:25;23.05;;;14.95;;
65045;SDS011;54657;52.022;5.534;2023-11-18T00:04:51;22.83;;;14.45;;
65045;SDS011;54657;52.022;5.534;2023-11-18T00:07:16;26.73;;;14.27;;
65045;SDS011;54657;52.022;5.534;2023-11-18T00:09:42;22.88;;;15.07;;
65045;SDS011;54657;52.022;5.534;2023-11-18T00:12:10;25.40;;;15.15;;
65045;SDS011;54657;52.022;5.534;2023-11-18T00:14:37;21.35;;;14.52;;
65045;SDS011;54657;52.022;5.534;2023-11-18T00:17:03;18.77;;;13.60;;
65045;SDS011;54657;52.022;5.534;2023-11-18T00:19:29;24.40;;;14.38;;
65045;SDS011;54657;52.022;5.534;2023-11-18T00:21:55;22.55;;;14.55;;
65045;SDS011;54657;52.022;5.534;2023-11-18T00:24:20;21.55;;;14.55;;
65045;SDS011;54657;52.022;5.534;2023-11-18T00:26:46;25.67;;;15.00;;
65045;SDS011;54657;52.022;5.534;2023-11-18T00:29:11;21.60;;;14.80;;
65045;SDS011;54657;52.022;5.534;2023-11-18T00:31:37;20.63;;;14.20;;
65045;SDS011;54657;52.022;5.534;2023-11-18T00:34:03;20.60;;;13.70;;
65045;SDS011;54657;52.022;5.534;2023-11-18T00:36:28;22.20;;;13.60;;
65045;SDS011;54657;52.022;5.534;2023-11-18T00:38:54;25.30;;;14.63;;
65045;SDS011;54657;52.022;5.534;2023-11-18T00:41:19;22.73;;;14.70;;
65045;SDS011;54657;52.022;5.534;2023-11-18T00:43:46;18.75;;;13.25;;
65045;SDS011;54657;52.022;5.534;2023-11-18T00:46:12;20.63;;;14.00;;
65045;SDS011;54657;52.022;5.534;2023-11-18T00:48:38;23.73;;;13.90;;
65045;SDS011;54657;52.022;5.534;2023-11-18T00:51:04;21.95;;;13.98;;
65045;SDS011;54657;52.022;5.534;2023-11-18T00:53:31;19.90;;;13.00;;
65045;SDS011;54657;52.022;5.534;2023-11-18T00:55:56;23.65;;;14.23;;
65045;SDS011;54657;52.022;5.534;2023-11-18T00:58:22;20.77;;;14.07;;
65045;SDS011;54657;52.022;5.534;2023-11-18T01:00:47;31.30;;;16.05;;
65045;SDS011;54657;52.022;5.534;2023-11-18T01:03:13;22.85;;;14.25;;
65045;SDS011;54657;52.022;5.534;2023-11-18T01:05:38;22.95;;;14.20;;
65045;SDS011;54657;52.022;5.534;2023-11-18T01:08:04;20.17;;;13.25;;
65045;SDS011;54657;52.022;5.534;2023-11-18T01:10:30;18.90;;;13.18;;
65045;SDS011;54657;52.022;5.534;2023-11-18T01:12:56;20.73;;;14.10;;
65045;SDS011;54657;52.022;5.534;2023-11-18T01:15:22;22.92;;;13.75;;
65045;SDS011;54657;52.022;5.534;2023-11-18T01:17:48;20.75;;;14.38;;
65045;SDS011;54657;52.022;5.534;2023-11-18T01:20:14;19.73;;;13.32;;
65045;SDS011;54657;52.022;5.534;2023-11-18T01:22:45;21.77;;;13.75;;
65045;SDS011;54657;52.022;5.534;2023-11-18T01:25:12;19.65;;;13.40;;
65045;SDS011;54657;52.022;5.534;2023-11-18T01:27:37;21.48;;;13.88;;
65045;SDS011;54657;52.022;5.534;2023-11-18T01:30:04;20.25;;;13.50;;
65045;SDS011;54657;52.022;5.534;2023-11-18T01:32:31;22.38;;;13.60;;
65045;SDS011;54657;52.022;5.534;2023-11-18T01:34:56;20.48;;;13.20;;
65045;SDS011;54657;52.022;5.534;2023-11-18T01:37:22;21.58;;;13.48;;
65045;SDS011;54657;52.022;5.534;2023-11-18T01:39:48;20.65;;;13.00;;
65045;SDS011;54657;52.022;5.534;2023-11-18T01:42:14;20.02;;;13.90;;
65045;SDS011;54657;52.022;5.534;2023-11-18T01:44:40;22.30;;;14.63;;
65045;SDS011;54657;52.022;5.534;2023-11-18T01:47:06;22.23;;;14.52;;
65045;SDS011;54657;52.022;5.534;2023-11-18T01:49:35;21.13;;;14.45;;
65045;SDS011;54657;52.022;5.534;2023-11-18T01:52:05;23.05;;;14.52;;
65045;SDS011;54657;52.022;5.534;2023-11-18T01:54:32;22.98;;;14.55;;
65045;SDS011;54657;52.022;5.534;2023-11-18T01:56:59;23.13;;;14.18;;
65045;SDS011;54657;52.022;5.534;2023-11-18T01:59:28;22.17;;;14.10;;
65045;SDS011;54657;52.022;5.534;2023-11-18T02:01:55;21.05;;;14.00;;
65045;SDS011;54657;52.022;5.534;2023-11-18T02:04:24;21.95;;;13.50;;
65045;SDS011;54657;52.022;5.534;2023-11-18T02:06:50;24.40;;;14.30;;
65045;SDS011;54657;52.022;5.534;2023-11-18T02:09:17;23.58;;;13.75;;
65045;SDS011;54657;52.022;5.534;2023-11-18T02:11:59;20.00;;;13.52;;
65045;SDS011;54657;52.022;5.534;2023-11-18T02:14:29;20.55;;;13.07;;
65045;SDS011;54657;52.022;5.534;2023-11-18T02:16:59;24.13;;;14.80;;
65045;SDS011;54657;52.022;5.534;2023-11-18T02:19:27;24.73;;;15.25;;
65045;SDS011;54657;52.022;5.534;2023-11-18T02:21:55;22.60;;;14.50;;
65045;SDS011;54657;52.022;5.534;2023-11-18T02:24:28;22.08;;;14.65;;
65045;SDS011;54657;52.022;5.534;2023-11-18T02:26:59;21.83;;;13.98;;
65045;SDS011;54657;52.022;5.534;2023-11-18T02:29:26;22.67;;;14.52;;
65045;SDS011;54657;52.022;5.534;2023-11-18T02:31:57;23.55;;;14.00;;
65045;SDS011;54657;52.022;5.534;2023-11-18T02:34:28;23.38;;;15.73;;
65045;SDS011;54657;52.022;5.534;2023-11-18T02:36:57;23.02;;;14.73;;
65045;SDS011;54657;52.022;5.534;2023-11-18T02:39:36;25.17;;;14.57;;
65045;SDS011;54657;52.022;5.534;2023-11-18T02:42:07;23.55;;;14.98;;
65045;SDS011;54657;52.022;5.534;2023-11-18T02:44:35;20.77;;;13.93;;
65045;SDS011;54657;52.022;5.534;2023-11-18T02:47:02;22.05;;;13.20;;
65045;SDS011;54657;52.022;5.534;2023-11-18T02:49:30;25.65;;;14.50;;
65045;SDS011;54657;52.022;5.534;2023-11-18T02:51:56;21.52;;;13.73;;
65045;SDS011;54657;52.022;5.534;2023-11-18T02:54:21;22.33;;;14.13;;
65045;SDS011;54657;52.022;5.534;2023-11-18T02:56:48;21.00;;;14.23;;
65045;SDS011;54657;52.022;5.534;2023-11-18T02:59:14;19.83;;;13.65;;
65045;SDS011;54657;52.022;5.534;2023-11-18T03:01:40;26.88;;;14.90;;
65045;SDS011;54657;52.022;5.534;2023-11-18T03:04:06;24.05;;;14.73;;
65045;SDS011;54657;52.022;5.534;2023-11-18T03:06:32;25.13;;;14.82;;
65045;SDS011;54657;52.022;5.534;2023-11-18T03:08:57;24.02;;;14.85;;
65045;SDS011;54657;52.022;5.534;2023-11-18T03:11:23;22.85;;;14.82;;
65045;SDS011;54657;52.022;5.534;2023-11-18T03:13:49;22.38;;;14.48;;
65045;SDS011;54657;52.022;5.534;2023-11-18T03:16:15;23.52;;;14.02;;
65045;SDS011;54657;52.022;5.534;2023-11-18T03:18:42;20.05;;;14.18;;
65045;SDS011;54657;52.022;5.534;2023-11-18T03:21:14;27.17;;;14.25;;
65045;SDS011;54657;52.022;5.534;2023-11-18T03:23:40;22.93;;;14.30;;
65045;SDS011;54657;52.022;5.534;2023-11-18T03:26:06;21.02;;;14.70;;
65045;SDS011;54657;52.022;5.534;2023-11-18T03:28:32;20.55;;;13.35;;
65045;SDS011;54657;52.022;5.534;2023-11-18T03:30:58;22.30;;;14.57;;
65045;SDS011;54657;52.022;5.534;2023-11-18T03:33:24;21.08;;;13.50;;
65045;SDS011;54657;52.022;5.534;2023-11-18T03:35:49;24.00;;;14.55;;
65045;SDS011;54657;52.022;5.534;2023-11-18T03:38:15;21.48;;;13.40;;
65045;SDS011;54657;52.022;5.534;2023-11-18T03:40:43;21.00;;;13.73;;
65045;SDS011;54657;52.022;5.534;2023-11-18T03:43:10;19.85;;;13.65;;
65045;SDS011;54657;52.022;5.534;2023-11-18T03:45:39;21.67;;;13.52;;
65045;SDS011;54657;52.022;5.534;2023-11-18T03:48:05;23.60;;;14.23;;
65045;SDS011;54657;52.022;5.534;2023-11-18T03:50:32;20.95;;;13.52;;
65045;SDS011;54657;52.022;5.534;2023-11-18T03:52:58;23.67;;;13.63;;
65045;SDS011;54657;52.022;5.534;2023-11-18T03:55:23;23.25;;;14.13;;
65045;SDS011;54657;52.022;5.534;2023-11-18T03:57:50;19.77;;;13.10;;
65045;SDS011;54657;52.022;5.534;2023-11-18T04:00:16;19.40;;;13.73;;
65045;SDS011;54657;52.022;5.534;2023-11-18T04:02:42;18.98;;;13.05;;
65045;SDS011;54657;52.022;5.534;2023-11-18T04:05:11;22.35;;;12.40;;
65045;SDS011;54657;52.022;5.534;2023-11-18T04:07:37;21.75;;;13.30;;
65045;SDS011;54657;52.022;5.534;2023-11-18T04:10:03;19.27;;;13.43;;
65045;SDS011;54657;52.022;5.534;2023-11-18T04:12:34;22.27;;;13.30;;
65045;SDS011;54657;52.022;5.534;2023-11-18T04:15:00;21.80;;;14.20;;
65045;SDS011;54657;52.022;5.534;2023-11-18T04:17:25;25.40;;;13.77;;
65045;SDS011;54657;52.022;5.534;2023-11-18T04:19:53;21.50;;;13.70;;
65045;SDS011;54657;52.022;5.534;2023-11-18T04:22:20;23.38;;;14.32;;
65045;SDS011;54657;52.022;5.534;2023-11-18T04:24:47;21.85;;;14.10;;
65045;SDS011;54657;52.022;5.534;2023-11-18T04:27:12;26.25;;;15.57;;
65045;SDS011;54657;52.022;5.534;2023-11-18T04:29:38;25.65;;;14.85;;
65045;SDS011;54657;52.022;5.534;2023-11-18T04:32:05;26.00;;;15.68;;
65045;SDS011;54657;52.022;5.534;2023-11-18T04:34:34;22.40;;;14.98;;
65045;SDS011;54657;52.022;5.534;2023-11-18T04:37:01;26.58;;;16.60;;
65045;SDS011;54657;52.022;5.534;2023-11-18T04:39:27;27.52;;;15.93;;
65045;SDS011;54657;52.022;5.534;2023-11-18T04:41:55;27.98;;;15.82;;
65045;SDS011;54657;52.022;5.534;2023-11-18T04:44:21;25.88;;;15.77;;
65045;SDS011;54657;52.022;5.534;2023-11-18T04:46:47;25.95;;;15.27;;
65045;SDS011;54657;52.022;5.534;2023-11-18T04:49:12;23.17;;;15.23;;
65045;SDS011;54657;52.022;5.534;2023-11-18T04:51:38;28.88;;;15.82;;
65045;SDS011;54657;52.022;5.534;2023-11-18T04:54:04;23.73;;;15.57;;
65045;SDS011;54657;52.022;5.534;2023-11-18T04:56:32;26.95;;;15.57;;
65045;SDS011;54657;52.022;5.534;2023-11-18T04:59:00;26.80;;;16.08;;
65045;SDS011;54657;52.022;5.534;2023-11-18T05:01:26;26.63;;;15.93;;
65045;SDS011;54657;52.022;5.534;2023-11-18T05:03:51;23.38;;;14.75;;
65045;SDS011;54657;52.022;5.534;2023-11-18T05:06:17;24.80;;;15.43;;
65045;SDS011;54657;52.022;5.534;2023-11-18T05:08:44;23.90;;;14.93;;
65045;SDS011;54657;52.022;5.534;2023-11-18T05:11:10;25.08;;;14.85;;
65045;SDS011;54657;52.022;5.534;2023-11-18T05:13:37;24.45;;;14.80;;
65045;SDS011;54657;52.022;5.534;2023-11-18T05:16:05;25.75;;;15.13;;
65045;SDS011;54657;52.022;5.534;2023-11-18T05:18:31;24.20;;;14.70;;
65045;SDS011;54657;52.022;5.534;2023-11-18T05:21:01;23.08;;;13.77;;
65045;SDS011;54657;52.022;5.534;2023-11-18T05:23:28;27.40;;;15.32;;
65045;SDS011;54657;52.022;5.534;2023-11-18T05:25:54;20.80;;;13.90;;
65045;SDS011;54657;52.022;5.534;2023-11-18T05:28:21;21.85;;;13.57;;
65045;SDS011;54657;52.022;5.534;2023-11-18T05:30:47;22.02;;;13.57;;
65045;SDS011;54657;52.022;5.534;2023-11-18T05:33:12;22.27;;;13.68;;
65045;SDS011;54657;52.022;5.534;2023-11-18T05:35:43;21.38;;;13.40;;
65045;SDS011;54657;52.022;5.534;2023-11-18T05:38:16;18.48;;;12.13;;
65045;SDS011;54657;52.022;5.534;2023-11-18T05:40:44;21.20;;;12.65;;
65045;SDS011;54657;52.022;5.534;2023-11-18T05:43:21;19.15;;;12.52;;
65045;SDS011;54657;52.022;5.534;2023-11-18T05:48:37;15.15;;;10.18;;
65045;SDS011;54657;52.022;5.534;2023-11-18T05:51:03;16.33;;;10.38;;
65045;SDS011;54657;52.022;5.534;2023-11-18T05:53:28;17.83;;;11.00;;
65045;SDS011;54657;52.022;5.534;2023-11-18T05:55:55;17.85;;;10.88;;
65045;SDS011;54657;52.022;5.534;2023-11-18T05:58:20;16.08;;;10.98;;
65045;SDS011;54657;52.022;5.534;2023-11-18T06:00:46;16.75;;;10.82;;
65045;SDS011;54657;52.022;5.534;2023-11-18T06:03:13;16.38;;;10.20;;
65045;SDS011;54657;52.022;5.534;2023-11-18T06:05:38;18.02;;;10.45;;
65045;SDS011;54657;52.022;5.534;2023-11-18T06:08:04;17.48;;;10.60;;
65045;SDS011;54657;52.022;5.534;2023-11-18T06:10:30;19.17;;;9.93;;
65045;SDS011;54657;52.022;5.534;2023-11-18T06:12:59;23.98;;;11.55;;
65045;SDS011;54657;52.022;5.534;2023-11-18T06:15:25;18.60;;;10.80;;
65045;SDS011;54657;52.022;5.534;2023-11-18T06:17:50;19.33;;;10.27;;
65045;SDS011;54657;52.022;5.534;2023-11-18T06:20:16;20.88;;;10.82;;
65045;SDS011;54657;52.022;5.534;2023-11-18T06:22:42;15.88;;;11.32;;
65045;SDS011;54657;52.022;5.534;2023-11-18T06:25:08;15.73;;;10.88;;
65045;SDS011;54657;52.022;5.534;2023-11-18T06:27:33;20.42;;;11.23;;
65045;SDS011;54657;52.022;5.534;2023-11-18T06:29:59;19.35;;;11.38;;
65045;SDS011;54657;52.022;5.534;2023-11-18T06:32:25;15.88;;;10.63;;
65045;SDS011;54657;52.022;5.534;2023-11-18T06:34:51;15.13;;;10.45;;
65045;SDS011;54657;52.022;5.534;2023-11-18T06:37:18;18.38;;;11.05;;
65045;SDS011;54657;52.022;5.534;2023-11-18T06:39:44;19.83;;;10.30;;
65045;SDS011;54657;52.022;5.534;2023-11-18T06:42:12;17.40;;;10.88;;
65045;SDS011;54657;52.022;5.534;2023-11-18T06:44:39;18.25;;;10.95;;
65045;SDS011;54657;52.022;5.534;2023-11-18T06:47:05;15.57;;;10.57;;
65045;SDS011;54657;52.022;5.534;2023-11-18T06:49:31;18.02;;;10.88;;
65045;SDS011;54657;52.022;5.534;2023-11-18T06:51:59;19.40;;;11.55;;
65045;SDS011;54657;52.022;5.534;2023-11-18T06:54:29;17.83;;;11.20;;
65045;SDS011;54657;52.022;5.534;2023-11-18T06:56:55;16.13;;;10.88;;
65045;SDS011;54657;52.022;5.534;2023-11-18T06:59:21;18.23;;;11.00;;
65045;SDS011;54657;52.022;5.534;2023-11-18T07:01:46;16.77;;;11.20;;
65045;SDS011;54657;52.022;5.534;2023-11-18T07:04:12;21.85;;;11.73;;
65045;SDS011;54657;52.022;5.534;2023-11-18T07:06:39;18.58;;;10.20;;
65045;SDS011;54657;52.022;5.534;2023-11-18T07:09:05;20.27;;;10.40;;
65045;SDS011;54657;52.022;5.534;2023-11-18T07:11:46;18.00;;;11.60;;
65045;SDS011;54657;52.022;5.534;2023-11-18T07:14:12;15.55;;;10.10;;
65045;SDS011;54657;52.022;5.534;2023-11-18T07:16:39;14.80;;;10.23;;
65045;SDS011;54657;52.022;5.534;2023-11-18T07:19:05;18.00;;;11.15;;
65045;SDS011;54657;52.022;5.534;2023-11-18T07:21:31;19.00;;;10.32;;
65045;SDS011;54657;52.022;5.534;2023-11-18T07:23:58;16.50;;;9.93;;
65045;SDS011;54657;52.022;5.534;2023-11-18T07:26:24;21.08;;;10.65;;
65045;SDS011;54657;52.022;5.534;2023-11-18T07:28:50;16.05;;;10.05;;
65045;SDS011;54657;52.022;5.534;2023-11-18T07:31:16;15.80;;;10.18;;
65045;SDS011;54657;52.022;5.534;2023-11-18T07:33:43;15.38;;;9.20;;
65045;SDS011;54657;52.022;5.534;2023-11-18T07:36:14;16.40;;;10.35;;
65045;SDS011;54657;52.022;5.534;2023-11-18T07:38:44;14.57;;;9.98;;
65045;SDS011;54657;52.022;5.534;2023-11-18T07:41:15;16.60;;;10.02;;
65045;SDS011;54657;52.022;5.534;2023-11-18T07:43:51;13.65;;;9.38;;
65045;SDS011;54657;52.022;5.534;2023-11-18T07:46:19;19.02;;;9.68;;
65045;SDS011;54657;52.022;5.534;2023-11-18T07:48:47;14.57;;;9.80;;
65045;SDS011;54657;52.022;5.534;2023-11-18T07:51:20;15.82;;;9.38;;
65045;SDS011;54657;52.022;5.534;2023-11-18T07:53:47;14.27;;;9.57;;
65045;SDS011;54657;52.022;5.534;2023-11-18T07:56:14;15.25;;;9.32;;
65045;SDS011;54657;52.022;5.534;2023-11-18T07:58:41;13.57;;;9.05;;
65045;SDS011;54657;52.022;5.534;2023-11-18T08:01:13;13.45;;;9.43;;
65045;SDS011;54657;52.022;5.534;2023-11-18T08:03:41;15.75;;;9.48;;
65045;SDS011;54657;52.022;5.534;2023-11-18T08:06:07;15.52;;;9.02;;
65045;SDS011;54657;52.022;5.534;2023-11-18T08:08:33;12.18;;;9.30;;
65045;SDS011;54657;52.022;5.534;2023-11-18T08:10:59;13.80;;;9.07;;
65045;SDS011;54657;52.022;5.534;2023-11-18T08:13:25;14.85;;;9.13;;
65045;SDS011;54657;52.022;5.534;2023-11-18T08:15:51;15.63;;;9.35;;
65045;SDS011;54657;52.022;5.534;2023-11-18T08:18:17;14.32;;;9.05;;
65045;SDS011;54657;52.022;5.534;2023-11-18T08:20:43;14.95;;;9.90;;
65045;SDS011;54657;52.022;5.534;2023-11-18T08:23:08;14.30;;;8.75;;
65045;SDS011;54657;52.022;5.534;2023-11-18T08:25:35;13.43;;;8.68;;
65045;SDS011;54657;52.022;5.534;2023-11-18T08:28:01;15.27;;;9.48;;
65045;SDS011;54657;52.022;5.534;2023-11-18T08:30:28;15.10;;;9.10;;
65045;SDS011;54657;52.022;5.534;2023-11-18T08:32:54;12.02;;;8.25;;
65045;SDS011;54657;52.022;5.534;2023-11-18T08:35:20;13.32;;;8.45;;
65045;SDS011;54657;52.022;5.534;2023-11-18T08:37:46;16.15;;;10.35;;
65045;SDS011;54657;52.022;5.534;2023-11-18T08:40:12;16.58;;;9.27;;
65045;SDS011;54657;52.022;5.534;2023-11-18T08:42:44;15.93;;;10.43;;
65045;SDS011;54657;52.022;5.534;2023-11-18T08:45:18;15.18;;;8.43;;
65045;SDS011;54657;52.022;5.534;2023-11-18T08:47:55;15.07;;;8.90;;
65045;SDS011;54657;52.022;5.534;2023-11-18T08:50:21;14.75;;;9.18;;
65045;SDS011;54657;52.022;5.534;2023-11-18T08:52:53;12.52;;;8.15;;
65045;SDS011;54657;52.022;5.534;2023-11-18T08:55:23;11.45;;;7.47;;
65045;SDS011;54657;52.022;5.534;2023-11-18T08:58:03;13.27;;;8.13;;
65045;SDS011;54657;52.022;5.534;2023-11-18T09:00:40;13.15;;;8.77;;
65045;SDS011;54657;52.022;5.534;2023-11-18T09:03:09;16.20;;;8.85;;
65045;SDS011;54657;52.022;5.534;2023-11-18T09:08:32;15.95;;;8.07;;
65045;SDS011;54657;52.022;5.534;2023-11-18T09:11:06;14.65;;;7.60;;
65045;SDS011;54657;52.022;5.534;2023-11-18T09:13:35;11.23;;;6.88;;
65045;SDS011;54657;52.022;5.534;2023-11-18T09:16:02;10.68;;;6.50;;
65045;SDS011;54657;52.022;5.534;2023-11-18T09:18:33;13.30;;;7.30;;
65045;SDS011;54657;52.022;5.534;2023-11-18T09:21:00;12.05;;;7.30;;
65045;SDS011;54657;52.022;5.534;2023-11-18T09:23:26;11.07;;;7.07;;
65045;SDS011;54657;52.022;5.534;2023-11-18T09:25:53;11.32;;;7.15;;
65045;SDS011;54657;52.022;5.534;2023-11-18T09:28:20;10.43;;;6.57;;
65045;SDS011;54657;52.022;5.534;2023-11-18T09:30:46;10.23;;;6.75;;
65045;SDS011;54657;52.022;5.534;2023-11-18T09:33:18;11.52;;;6.65;;
65045;SDS011;54657;52.022;5.534;2023-11-18T09:35:57;10.55;;;5.95;;
65045;SDS011;54657;52.022;5.534;2023-11-18T09:38:27;9.52;;;6.78;;
65045;SDS011;54657;52.022;5.534;2023-11-18T09:43:26;14.05;;;6.20;;
65045;SDS011;54657;52.022;5.534;2023-11-18T09:45:56;9.43;;;6.55;;
65045;SDS011;54657;52.022;5.534;2023-11-18T09:51:12;10.68;;;5.88;;
65045;SDS011;54657;52.022;5.534;2023-11-18T09:53:41;7.80;;;5.63;;
65045;SDS011;54657;52.022;5.534;2023-11-18T09:56:13;9.40;;;5.75;;
65045;SDS011;54657;52.022;5.534;2023-11-18T09:59:16;11.57;;;5.82;;
65045;SDS011;54657;52.022;5.534;2023-11-18T10:01:50;8.77;;;5.57;;
65045;SDS011;54657;52.022;5.534;2023-11-18T10:04:22;10.70;;;5.88;;
65045;SDS011;54657;52.022;5.534;2023-11-18T10:06:52;7.82;;;5.47;;
65045;SDS011;54657;52.022;5.534;2023-11-18T10:09:19;10.38;;;5.90;;
65045;SDS011;54657;52.022;5.534;2023-11-18T10:11:53;8.15;;;5.28;;
65045;SDS011;54657;52.022;5.534;2023-11-18T10:14:30;8.60;;;5.63;;
65045;SDS011;54657;52.022;5.534;2023-11-18T10:16:57;10.07;;;5.07;;
65045;SDS011;54657;52.022;5.534;2023-11-18T10:19:22;11.15;;;5.85;;
65045;SDS011;54657;52.022;5.534;2023-11-18T10:21:50;13.18;;;6.13;;
65045;SDS011;54657;52.022;5.534;2023-11-18T10:24:16;10.30;;;5.85;;
65045;SDS011;54657;52.022;5.534;2023-11-18T10:26:44;10.85;;;5.07;;
65045;SDS011;54657;52.022;5.534;2023-11-18T10:29:19;8.68;;;5.63;;
65045;SDS011;54657;52.022;5.534;2023-11-18T10:31:45;11.10;;;5.88;;
65045;SDS011;54657;52.022;5.534;2023-11-18T10:34:13;9.18;;;5.57;;
65045;SDS011;54657;52.022;5.534;2023-11-18T10:36:40;12.00;;;5.75;;
65045;SDS011;54657;52.022;5.534;2023-11-18T10:39:10;9.32;;;5.55;;
65045;SDS011;54657;52.022;5.534;2023-11-18T10:41:42;10.18;;;6.22;;
65045;SDS011;54657;52.022;5.534;2023-11-18T10:44:08;11.73;;;5.93;;
65045;SDS011;54657;52.022;5.534;2023-11-18T10:46:52;8.57;;;5.20;;
65045;SDS011;54657;52.022;5.534;2023-11-18T10:49:21;12.73;;;5.65;;
65045;SDS011;54657;52.022;5.534;2023-11-18T10:51:47;10.98;;;5.38;;
65045;SDS011;54657;52.022;5.534;2023-11-18T10:54:15;10.15;;;5.47;;
65045;SDS011;54657;52.022;5.534;2023-11-18T10:56:48;10.65;;;5.20;;
65045;SDS011;54657;52.022;5.534;2023-11-18T10:59:15;8.85;;;5.43;;
65045;SDS011;54657;52.022;5.534;2023-11-18T11:01:41;8.18;;;5.03;;
65045;SDS011;54657;52.022;5.534;2023-11-18T11:04:08;8.98;;;5.22;;
65045;SDS011;54657;52.022;5.534;2023-11-18T11:06:40;8.85;;;5.00;;
65045;SDS011;54657;52.022;5.534;2023-11-18T11:09:07;9.35;;;5.68;;
65045;SDS011;54657;52.022;5.534;2023-11-18T11:11:49;8.35;;;5.55;;
65045;SDS011;54657;52.022;5.534;2023-11-18T11:14:16;11.70;;;5.82;;
65045;SDS011;54657;52.022;5.534;2023-11-18T11:16:46;9.85;;;5.95;;
65045;SDS011;54657;52.022;5.534;2023-11-18T11:22:35;8.73;;;6.18;;
65045;SDS011;54657;52.022;5.534;2023-11-18T11:25:20;10.07;;;5.30;;
65045;SDS011;54657;52.022;5.534;2023-11-18T11:30:50;11.88;;;5.97;;
65045;SDS011;54657;52.022;5.534;2023-11-18T11:33:33;11.68;;;5.00;;
65045;SDS011;54657;52.022;5.534;2023-11-18T11:36:09;8.18;;;5.15;;
65045;SDS011;54657;52.022;5.534;2023-11-18T11:38:37;12.20;;;5.22;;
65045;SDS011;54657;52.022;5.534;2023-11-18T11:41:06;10.95;;;5.07;;
65045;SDS011;54657;52.022;5.534;2023-11-18T11:43:34;12.40;;;5.03;;
65045;SDS011;54657;52.022;5.534;2023-11-18T11:46:02;13.27;;;5.03;;
65045;SDS011;54657;52.022;5.534;2023-11-18T11:48:35;6.30;;;4.47;;
65045;SDS011;54657;52.022;5.534;2023-11-18T11:51:14;8.80;;;4.13;;
65045;SDS011;54657;52.022;5.534;2023-11-18T11:53:57;9.68;;;4.55;;
65045;SDS011;54657;52.022;5.534;2023-11-18T11:56:41;7.45;;;4.18;;
65045;SDS011;54657;52.022;5.534;2023-11-18T12:02:16;6.35;;;4.03;;
65045;SDS011;54657;52.022;5.534;2023-11-18T12:04:45;7.47;;;4.30;;
65045;SDS011;54657;52.022;5.534;2023-11-18T12:07:17;7.00;;;4.00;;
65045;SDS011;54657;52.022;5.534;2023-11-18T12:09:44;8.48;;;4.10;;
65045;SDS011;54657;52.022;5.534;2023-11-18T12:12:18;8.07;;;4.07;;
65045;SDS011;54657;52.022;5.534;2023-11-18T12:23:19;7.05;;;3.10;;
65045;SDS011;54657;52.022;5.534;2023-11-18T12:25:48;4.95;;;2.65;;
65045;SDS011;54657;52.022;5.534;2023-11-18T12:28:19;10.52;;;3.50;;
65045;SDS011;54657;52.022;5.534;2023-11-18T12:30:54;6.97;;;2.63;;
65045;SDS011;54657;52.022;5.534;2023-11-18T12:33:21;3.97;;;2.50;;
65045;SDS011;54657;52.022;5.534;2023-11-18T12:41:38;4.95;;;2.60;;
65045;SDS011;54657;52.022;5.534;2023-11-18T12:47:03;6.45;;;2.97;;
65045;SDS011;54657;52.022;5.534;2023-11-18T12:49:39;5.00;;;2.70;;
65045;SDS011;54657;52.022;5.534;2023-11-18T12:52:06;4.50;;;3.00;;
65045;SDS011;54657;52.022;5.534;2023-11-18T12:54:33;6.82;;;2.80;;
65045;SDS011;54657;52.022;5.534;2023-11-18T12:57:03;5.20;;;2.60;;
65045;SDS011;54657;52.022;5.534;2023-11-18T12:59:33;4.80;;;2.42;;
65045;SDS011;54657;52.022;5.534;2023-11-18T13:01:59;3.38;;;2.17;;
65045;SDS011;54657;52.022;5.534;2023-11-18T13:04:29;7.28;;;3.30;;
65045;SDS011;54657;52.022;5.534;2023-11-18T13:06:55;6.72;;;3.50;;
65045;SDS011;54657;52.022;5.534;2023-11-18T13:09:23;5.70;;;3.47;;
65045;SDS011;54657;52.022;5.534;2023-11-18T13:11:57;3.78;;;2.15;;
65045;SDS011;54657;52.022;5.534;2023-11-18T13:14:24;4.50;;;2.30;;
65045;SDS011;54657;52.022;5.534;2023-11-18T13:16:55;5.10;;;2.65;;
65045;SDS011;54657;52.022;5.534;2023-11-18T13:19:25;5.95;;;2.58;;
65045;SDS011;54657;52.022;5.534;2023-11-18T13:21:58;4.80;;;2.50;;
65045;SDS011;54657;52.022;5.534;2023-11-18T13:24:24;5.22;;;2.60;;
65045;SDS011;54657;52.022;5.534;2023-11-18T13:26:54;6.95;;;2.00;;
65045;SDS011;54657;52.022;5.534;2023-11-18T13:29:21;5.80;;;2.67;;
65045;SDS011;54657;52.022;5.534;2023-11-18T13:31:47;5.85;;;2.67;;
65045;SDS011;54657;52.022;5.534;2023-11-18T13:34:14;3.72;;;2.60;;
65045;SDS011;54657;52.022;5.534;2023-11-18T13:36:40;4.65;;;2.75;;
65045;SDS011;54657;52.022;5.534;2023-11-18T13:39:08;2.95;;;2.35;;
65045;SDS011;54657;52.022;5.534;2023-11-18T13:41:41;3.88;;;2.58;;
65045;SDS011;54657;52.022;5.534;2023-11-18T13:44:09;3.60;;;2.22;;
65045;SDS011;54657;52.022;5.534;2023-11-18T13:46:38;4.03;;;2.33;;
65045;SDS011;54657;52.022;5.534;2023-11-18T13:49:05;1.73;;;1.63;;
65045;SDS011;54657;52.022;5.534;2023-11-18T13:51:31;2.83;;;2.42;;
65045;SDS011;54657;52.022;5.534;2023-11-18T13:53:58;4.32;;;2.10;;
65045;SDS011;54657;52.022;5.534;2023-11-18T13:56:24;3.20;;;2.15;;
65045;SDS011;54657;52.022;5.534;2023-11-18T13:58:52;3.58;;;1.85;;
65045;SDS011;54657;52.022;5.534;2023-11-18T14:01:19;1.80;;;1.70;;
65045;SDS011;54657;52.022;5.534;2023-11-18T14:03:46;2.05;;;1.90;;
65045;SDS011;54657;52.022;5.534;2023-11-18T14:06:13;2.00;;;1.67;;
65045;SDS011;54657;52.022;5.534;2023-11-18T14:08:42;1.85;;;1.50;;
65045;SDS011;54657;52.022;5.534;2023-11-18T14:11:08;2.88;;;1.58;;
65045;SDS011;54657;52.022;5.534;2023-11-18T14:13:34;2.03;;;1.40;;
65045;SDS011;54657;52.022;5.534;2023-11-18T14:16:03;2.00;;;1.45;;
65045;SDS011;54657;52.022;5.534;2023-11-18T14:18:34;1.50;;;1.40;;
65045;SDS011;54657;52.022;5.534;2023-11-18T14:21:01;1.63;;;1.42;;
65045;SDS011;54657;52.022;5.534;2023-11-18T14:23:27;1.88;;;1.50;;
65045;SDS011;54657;52.022;5.534;2023-11-18T14:25:53;1.65;;;1.45;;
65045;SDS011;54657;52.022;5.534;2023-11-18T14:28:18;1.50;;;1.35;;
65045;SDS011;54657;52.022;5.534;2023-11-18T14:30:49;2.53;;;1.20;;
65045;SDS011;54657;52.022;5.534;2023-11-18T14:33:15;2.10;;;1.52;;
65045;SDS011;54657;52.022;5.534;2023-11-18T14:35:40;3.13;;;1.17;;
65045;SDS011;54657;52.022;5.534;2023-11-18T14:38:10;3.13;;;1.48;;
65045;SDS011;54657;52.022;5.534;2023-11-18T14:40:37;1.35;;;1.25;;
65045;SDS011;54657;52.022;5.534;2023-11-18T14:43:04;1.70;;;1.38;;
65045;SDS011;54657;52.022;5.534;2023-11-18T14:45:30;1.48;;;1.38;;
65045;SDS011;54657;52.022;5.534;2023-11-18T14:47:56;2.95;;;1.10;;
65045;SDS011;54657;52.022;5.534;2023-11-18T14:50:21;1.92;;;1.45;;
65045;SDS011;54657;52.022;5.534;2023-11-18T14:52:49;1.25;;;1.15;;
65045;SDS011;54657;52.022;5.534;2023-11-18T14:55:25;2.13;;;1.30;;
65045;SDS011;54657;52.022;5.534;2023-11-18T14:57:51;1.25;;;1.15;;
65045;SDS011;54657;52.022;5.534;2023-11-18T15:00:17;2.45;;;1.50;;
65045;SDS011;54657;52.022;5.534;2023-11-18T15:02:48;1.20;;;1.10;;
65045;SDS011;54657;52.022;5.534;2023-11-18T15:05:15;2.42;;;1.20;;
65045;SDS011;54657;52.022;5.534;2023-11-18T15:07:43;2.63;;;1.25;;
65045;SDS011;54657;52.022;5.534;2023-11-18T15:10:23;1.33;;;1.23;;
65045;SDS011;54657;52.022;5.534;2023-11-18T15:15:23;2.40;;;1.60;;
65045;SDS011;54657;52.022;5.534;2023-11-18T15:17:56;1.10;;;1.00;;